Time;durP1;ratioP1;P1;durP2;ratioP2;P2;SDS_P1;SDS_P2;PMS_P1;PMS_P2;Temp;Humidity;BMP_temperature;BMP_pressure;BME280_temperature;BME280_humidity;BME280_pressure;Samples;Min_cycle;Max_cycle;Signal;HPM_P1;HPM_P2
2024/02/09 00:01:12;;;;;;;6.72;1.63;;;8.50;99.90;;;;;;5030580;28;19948;-35
2024/02/09 00:03:38;;;;;;;6.00;2.05;;;8.60;99.90;;;;;;5027121;28;20034;-35
2024/02/09 00:06:06;;;;;;;2.55;1.70;;;8.70;99.90;;;;;;5042529;28;20602;-35
2024/02/09 00:08:31;;;;;;;4.28;1.77;;;8.70;99.90;;;;;;5027800;28;20044;-35
2024/02/09 00:10:57;;;;;;;4.18;2.00;;;8.70;99.90;;;;;;5025241;28;20487;-36
2024/02/09 00:13:23;;;;;;;7.45;1.90;;;8.70;99.90;;;;;;5024156;28;20526;-34
2024/02/09 00:15:49;;;;;;;2.80;1.80;;;8.70;99.90;;;;;;5026362;28;20391;-34
2024/02/09 00:18:18;;;;;;;3.90;1.88;;;8.70;99.90;;;;;;5005618;28;20033;-34
2024/02/09 00:20:47;;;;;;;4.63;1.30;;;8.70;99.90;;;;;;5029360;28;20037;-33
2024/02/09 00:23:18;;;;;;;5.00;1.95;;;8.70;99.90;;;;;;5030094;28;20071;-35
2024/02/09 00:25:44;;;;;;;2.20;1.77;;;8.70;99.90;;;;;;5013798;28;20033;-33
2024/02/09 00:28:11;;;;;;;6.88;1.63;;;8.80;99.90;;;;;;5023606;28;20025;-33
2024/02/09 00:30:40;;;;;;;3.75;1.40;;;8.80;99.90;;;;;;5030661;28;20038;-35
2024/02/09 00:33:08;;;;;;;3.10;1.60;;;8.80;99.90;;;;;;5026620;28;20030;-33
2024/02/09 00:35:34;;;;;;;3.85;1.58;;;8.80;99.90;;;;;;5029044;28;20047;-33
2024/02/09 00:38:02;;;;;;;2.65;1.48;;;8.80;99.90;;;;;;5025293;28;20030;-34
2024/02/09 00:40:31;;;;;;;3.78;1.60;;;8.80;99.90;;;;;;5022089;28;20586;-34
2024/02/09 00:42:56;;;;;;;;;;;8.70;99.90;;;;;;5029642;28;20556;-36
2024/02/09 00:45:23;;;;;;;4.28;1.60;;;8.70;99.90;;;;;;5027307;28;20008;-32
2024/02/09 00:47:49;;;;;;;4.28;1.70;;;8.70;99.90;;;;;;5028431;28;20025;-33
2024/02/09 00:50:18;;;;;;;4.72;1.65;;;8.70;99.90;;;;;;5021355;28;20026;-35
2024/02/09 00:52:53;;;;;;;4.22;1.75;;;8.70;99.90;;;;;;5021927;28;20055;-36
2024/02/09 00:55:19;;;;;;;4.97;1.95;;;8.70;99.90;;;;;;5023655;28;20391;-33
2024/02/09 00:57:46;;;;;;;3.90;1.42;;;8.70;99.90;;;;;;5025812;28;20029;-36
2024/02/09 01:00:13;;;;;;;3.47;1.55;;;8.60;99.90;;;;;;5025814;28;20037;-41
2024/02/09 01:02:40;;;;;;;3.63;1.50;;;8.60;99.90;;;;;;5021685;28;20487;-41
2024/02/09 01:05:06;;;;;;;5.28;1.77;;;8.60;99.90;;;;;;5028240;28;20045;-40
2024/02/09 01:07:32;;;;;;;2.90;1.85;;;8.60;99.90;;;;;;5026351;28;20060;-41
2024/02/09 01:09:58;;;;;;;4.60;1.50;;;8.50;99.90;;;;;;5021633;28;20069;-38
2024/02/09 02:45:15;;;;;;;3.83;2.53;;;8.30;99.90;;;;;;5023961;28;20437;-42
2024/02/09 03:04:17;;;;;;;5.18;2.47;;;8.30;99.90;;;;;;5024268;28;20394;-40
2024/02/09 03:04:20;;;;;;;4.60;2.08;;;8.20;99.90;;;;;;5029781;28;20053;-42
2024/02/09 03:06:46;;;;;;;4.60;2.00;;;8.20;99.90;;;;;;5029309;28;20025;-42
2024/02/09 03:09:11;;;;;;;5.68;2.33;;;8.20;99.90;;;;;;5013060;28;20375;-41
2024/02/09 03:11:37;;;;;;;3.70;2.20;;;8.20;99.90;;;;;;5025414;28;20497;-41
2024/02/09 03:14:05;;;;;;;26.40;9.82;;;8.20;99.90;;;;;;5034331;28;20033;-41
2024/02/09 03:16:31;;;;;;;7.65;3.20;;;8.10;99.90;;;;;;5029927;28;20108;-39
2024/02/09 03:18:57;;;;;;;6.63;3.55;;;8.10;99.90;;;;;;5030229;28;20037;-37
2024/02/09 03:21:26;;;;;;;5.53;2.58;;;8.20;99.90;;;;;;5029962;28;20497;-32
2024/02/09 03:23:56;;;;;;;5.10;2.97;;;8.20;99.90;;;;;;5031330;28;20035;-34
2024/02/09 03:26:25;;;;;;;3.58;2.33;;;8.20;99.90;;;;;;5045170;28;20107;-32
2024/02/09 03:28:52;;;;;;;11.13;3.30;;;8.20;99.90;;;;;;5030948;28;20036;-38
2024/02/09 03:31:18;;;;;;;15.07;5.20;;;8.10;99.90;;;;;;5030314;28;20104;-33
2024/02/09 03:33:43;;;;;;;11.15;3.78;;;8.10;99.90;;;;;;5030436;28;20127;-39
2024/02/09 03:36:12;;;;;;;5.53;2.63;;;8.10;99.90;;;;;;5013356;28;20546;-34
2024/02/09 03:38:38;;;;;;;5.50;2.63;;;8.10;99.90;;;;;;5030904;28;20571;-34
2024/02/09 03:41:04;;;;;;;3.35;2.33;;;8.10;99.90;;;;;;5027662;28;20029;-34
2024/02/09 03:43:30;;;;;;;5.28;2.88;;;8.10;99.90;;;;;;5013056;28;20541;-33
2024/02/09 03:45:56;;;;;;;4.68;2.60;;;8.00;99.90;;;;;;5029635;28;20040;-39
2024/02/09 03:48:23;;;;;;;5.28;2.95;;;8.00;99.90;;;;;;5028088;28;20503;-35
2024/02/09 03:50:49;;;;;;;21.60;8.60;;;8.00;99.90;;;;;;5029384;28;20092;-34
2024/02/09 03:53:15;;;;;;;6.18;3.72;;;7.90;99.90;;;;;;5028903;28;20879;-34
2024/02/09 03:55:40;;;;;;;7.47;3.65;;;8.00;99.90;;;;;;5031095;28;20099;-37
2024/02/09 03:58:07;;;;;;;9.38;3.38;;;8.00;99.90;;;;;;5029208;28;20108;-36
2024/02/09 04:00:33;;;;;;;6.70;3.22;;;8.00;99.90;;;;;;5027077;28;20025;-35
2024/02/09 04:02:58;;;;;;;8.02;3.65;;;8.00;99.90;;;;;;5026269;28;20029;-35
2024/02/09 04:05:25;;;;;;;6.32;2.88;;;8.10;99.90;;;;;;5003315;28;20415;-33
2024/02/09 04:07:51;;;;;;;5.18;2.40;;;8.10;99.90;;;;;;5024117;28;20096;-39
2024/02/09 04:10:20;;;;;;;4.63;2.00;;;8.10;99.90;;;;;;5026377;28;20100;-34
2024/02/09 04:12:45;;;;;;;5.93;2.17;;;8.20;99.90;;;;;;5026037;28;20076;-33
2024/02/09 04:15:11;;;;;;;4.20;2.13;;;8.10;99.90;;;;;;5025192;28;20049;-34
2024/02/09 04:17:37;;;;;;;3.13;1.80;;;8.10;99.90;;;;;;5026515;28;20463;-35
2024/02/09 04:20:04;;;;;;;5.80;2.38;;;8.10;99.90;;;;;;5026430;28;20035;-36
2024/02/09 04:22:30;;;;;;;3.47;1.80;;;8.10;99.90;;;;;;5024480;28;20602;-34
2024/02/09 04:24:59;;;;;;;4.68;1.80;;;8.10;99.90;;;;;;5025761;28;20040;-35
2024/02/09 04:27:25;;;;;;;6.95;2.35;;;8.10;99.90;;;;;;5028703;28;20035;-34
2024/02/09 04:29:51;;;;;;;3.83;2.08;;;8.10;99.90;;;;;;5026475;28;20029;-37
2024/02/09 04:32:17;;;;;;;4.53;2.00;;;8.10;99.90;;;;;;5007536;28;20080;-40
2024/02/09 04:34:43;;;;;;;2.95;1.70;;;8.10;99.90;;;;;;5024878;28;20061;-41
2024/02/09 04:37:09;;;;;;;2.95;1.85;;;8.10;99.90;;;;;;5028382;28;20038;-41
2024/02/09 04:39:34;;;;;;;3.45;1.73;;;8.10;99.90;;;;;;5025688;28;20026;-41
2024/02/09 04:42:00;;;;;;;5.82;1.90;;;8.10;99.90;;;;;;5026753;28;20578;-38
2024/02/09 04:44:26;;;;;;;5.45;1.90;;;8.10;99.90;;;;;;5026051;28;20055;-41
2024/02/09 04:46:51;;;;;;;5.30;2.00;;;8.10;99.90;;;;;;5025380;28;20033;-39
2024/02/09 04:49:17;;;;;;;2.17;1.52;;;8.20;99.90;;;;;;5008635;28;20491;-41
2024/02/09 04:51:44;;;;;;;3.17;1.60;;;8.10;99.90;;;;;;5026413;28;20021;-36
2024/02/09 04:54:11;;;;;;;1.80;1.50;;;8.20;99.90;;;;;;5024703;28;20022;-34
2024/02/09 04:56:37;;;;;;;3.38;1.50;;;8.10;99.90;;;;;;5027464;28;20518;-34
2024/02/09 04:59:06;;;;;;;3.38;1.55;;;8.10;99.90;;;;;;5023745;28;20090;-34
2024/02/09 05:01:32;;;;;;;3.72;1.63;;;8.10;99.90;;;;;;5025276;28;20525;-33
2024/02/09 05:03:59;;;;;;;20.75;2.30;;;8.00;99.90;;;;;;5025680;28;20116;-38
2024/02/09 05:06:29;;;;;;;1.60;1.35;;;8.00;99.90;;;;;;5023702;28;20469;-35
2024/02/09 05:08:59;;;;;;;2.03;1.60;;;7.90;99.90;;;;;;5026042;28;20040;-36
2024/02/09 05:11:33;;;;;;;2.90;1.90;;;7.90;99.90;;;;;;5023437;28;20113;-34
2024/02/09 05:13:59;;;;;;;2.92;1.38;;;7.90;99.90;;;;;;5026282;28;20064;-34
2024/02/09 05:16:27;;;;;;;3.42;1.70;;;8.00;99.90;;;;;;5026081;28;20574;-36
2024/02/09 05:18:53;;;;;;;3.15;2.38;;;8.00;99.90;;;;;;5025155;28;20820;-37
2024/02/09 05:21:18;;;;;;;2.08;1.60;;;8.00;99.90;;;;;;5022572;28;20041;-34
2024/02/09 05:23:44;;;;;;;2.70;1.70;;;8.00;99.90;;;;;;5019681;28;20530;-35
2024/02/09 05:26:11;;;;;;;4.72;2.15;;;8.00;99.90;;;;;;5018943;28;20029;-36
2024/02/09 05:28:44;;;;;;;3.95;1.85;;;8.00;99.90;;;;;;5026610;28;20097;-35
2024/02/09 05:31:15;;;;;;;4.28;1.83;;;8.10;99.90;;;;;;5023490;28;20458;-34
2024/02/09 05:33:42;;;;;;;4.65;1.90;;;8.10;99.90;;;;;;5021058;28;20077;-33
2024/02/09 05:36:17;;;;;;;4.00;1.65;;;8.00;99.90;;;;;;5022019;28;20561;-34
2024/02/09 05:38:42;;;;;;;2.30;1.90;;;8.10;99.90;;;;;;5019687;28;20028;-36
2024/02/09 05:41:08;;;;;;;2.75;1.90;;;8.10;99.90;;;;;;5027757;28;20034;-35
2024/02/09 05:43:35;;;;;;;2.00;1.90;;;8.10;99.90;;;;;;5024757;28;20109;-34
2024/02/09 05:46:01;;;;;;;5.78;2.15;;;8.10;99.90;;;;;;5022866;28;20084;-36
2024/02/09 05:48:27;;;;;;;5.05;2.30;;;8.20;99.90;;;;;;5024292;28;20013;-33
2024/02/09 05:50:52;;;;;;;3.08;2.13;;;8.20;99.90;;;;;;5017935;28;20101;-38
2024/02/09 05:53:18;;;;;;;4.25;1.85;;;8.10;99.90;;;;;;5021839;28;20487;-35
2024/02/09 05:55:47;;;;;;;3.90;1.90;;;8.20;99.90;;;;;;5028644;28;20064;-36
2024/02/09 05:58:12;;;;;;;2.60;1.88;;;8.30;99.90;;;;;;5030937;28;20029;-35
2024/02/09 06:00:43;;;;;;;4.28;2.00;;;8.30;99.90;;;;;;5021746;28;20625;-36
2024/02/09 06:03:09;;;;;;;2.75;2.45;;;8.30;99.90;;;;;;5007457;28;20037;-33
2024/02/09 06:05:38;;;;;;;8.55;7.75;;;8.20;99.90;;;;;;5027083;28;20039;-37
2024/02/09 06:08:08;;;;;;;7.72;5.40;;;8.20;99.90;;;;;;5043439;28;20017;-33
2024/02/09 06:10:33;;;;;;;6.07;3.17;;;8.20;99.90;;;;;;5031371;28;20120;-33
2024/02/09 06:12:59;;;;;;;5.45;2.40;;;8.20;99.90;;;;;;5013461;28;20112;-37
2024/02/09 06:15:25;;;;;;;5.75;3.80;;;8.30;99.90;;;;;;5022083;28;20457;-34
2024/02/09 06:17:51;;;;;;;4.13;3.42;;;8.20;99.90;;;;;;5021751;28;20559;-35
2024/02/09 06:20:19;;;;;;;4.13;2.90;;;8.20;99.90;;;;;;5026799;28;20040;-33
2024/02/09 06:22:45;;;;;;;;;;;8.30;99.90;;;;;;5022425;28;20636;-36
2024/02/09 06:25:10;;;;;;;5.60;2.47;;;8.30;99.90;;;;;;5025366;28;19920;-33
2024/02/09 06:27:36;;;;;;;7.50;3.28;;;8.30;99.90;;;;;;5028871;28;20075;-33
2024/02/09 06:30:02;;;;;;;6.20;3.65;;;8.30;99.90;;;;;;5025943;28;20024;-33
2024/02/09 06:32:28;;;;;;;5.22;3.42;;;8.30;99.90;;;;;;5020523;28;20037;-35
2024/02/09 06:34:53;;;;;;;6.55;3.97;;;8.30;99.90;;;;;;5005371;28;20040;-34
2024/02/09 06:37:22;;;;;;;5.20;3.60;;;8.30;99.90;;;;;;5026294;28;20030;-35
2024/02/09 06:39:52;;;;;;;5.63;3.13;;;8.30;99.90;;;;;;5003974;28;20049;-33
2024/02/09 06:42:20;;;;;;;3.88;2.63;;;8.40;99.90;;;;;;5003221;28;20113;-33
2024/02/09 06:44:46;;;;;;;;;;;8.30;99.90;;;;;;5003181;28;20029;-32
2024/02/09 06:47:15;;;;;;;3.53;2.42;;;8.30;99.90;;;;;;5015769;28;20493;-33
2024/02/09 06:49:44;;;;;;;3.53;2.10;;;8.30;99.90;;;;;;5030502;28;20072;-34
2024/02/09 06:52:11;;;;;;;3.08;2.78;;;8.20;99.90;;;;;;5005904;28;20026;-32
2024/02/09 06:54:37;;;;;;;10.38;3.67;;;8.20;99.90;;;;;;5009294;28;20064;-33
2024/02/09 06:57:04;;;;;;;6.65;3.35;;;8.20;99.90;;;;;;5022319;28;20022;-32
2024/02/09 06:59:29;;;;;;;6.63;3.95;;;8.20;99.90;;;;;;5023874;28;20033;-32
2024/02/09 07:01:59;;;;;;;4.60;4.15;;;8.20;99.90;;;;;;5017478;28;20040;-35
2024/02/09 07:04:25;;;;;;;7.63;3.53;;;8.20;99.90;;;;;;5020947;28;20057;-33
2024/02/09 07:06:51;;;;;;;6.38;3.38;;;8.20;99.90;;;;;;5026754;28;20052;-35
2024/02/09 07:09:21;;;;;;;6.22;3.60;;;8.30;99.90;;;;;;5027439;28;20029;-32
2024/02/09 07:12:03;;;;;;;4.50;3.70;;;8.30;99.90;;;;;;5025867;28;20530;-32
2024/02/09 07:14:30;;;;;;;4.10;3.42;;;8.30;99.90;;;;;;5042914;28;20098;-32
2024/02/09 07:17:05;;;;;;;5.47;4.00;;;8.30;99.90;;;;;;5012959;28;20546;-37
2024/02/09 07:19:34;;;;;;;6.75;4.00;;;8.30;99.90;;;;;;5004207;28;20021;-32
2024/02/09 07:22:01;;;;;;;;;;;8.30;99.90;;;;;;5012851;28;20025;-32
2024/02/09 07:24:27;;;;;;;8.40;3.60;;;8.30;99.90;;;;;;5006906;28;20319;-34
2024/02/09 07:26:54;;;;;;;4.18;2.90;;;8.30;99.90;;;;;;5013957;28;20108;-33
2024/02/09 07:29:22;;;;;;;7.70;3.22;;;8.30;99.90;;;;;;5007964;28;20018;-32
2024/02/09 07:31:56;;;;;;;6.75;2.67;;;8.30;99.90;;;;;;5007892;28;20049;-32
2024/02/09 07:34:22;;;;;;;7.63;2.90;;;8.30;99.90;;;;;;5008793;28;20098;-35
2024/02/09 07:36:48;;;;;;;6.28;3.63;;;8.30;99.90;;;;;;5007055;28;20029;-33
2024/02/09 07:39:15;;;;;;;3.20;2.53;;;8.30;99.90;;;;;;5019266;28;20080;-32
2024/02/09 07:41:44;;;;;;;4.57;2.95;;;8.40;99.90;;;;;;5007986;28;20025;-34
2024/02/09 07:44:10;;;;;;;34.80;14.65;;;8.40;99.90;;;;;;5038205;28;20033;-32
2024/02/09 07:46:37;;;;;;;23.52;9.27;;;8.40;99.90;;;;;;5008813;28;20037;-32
2024/02/09 07:49:03;;;;;;;16.75;7.72;;;8.40;99.90;;;;;;5023663;28;20025;-32
2024/02/09 07:51:29;;;;;;;8.48;5.00;;;8.40;99.90;;;;;;5012358;28;20076;-32
2024/02/09 07:53:55;;;;;;;6.40;4.22;;;8.50;99.90;;;;;;5003424;28;20021;-31
2024/02/09 07:56:28;;;;;;;3.85;3.00;;;8.50;99.90;;;;;;5015285;28;20124;-35
2024/02/09 07:58:54;;;;;;;4.85;3.28;;;8.60;99.90;;;;;;5008282;28;20405;-33
2024/02/09 08:01:21;;;;;;;5.05;2.95;;;8.70;99.90;;;;;;5005813;28;20037;-37
2024/02/09 08:03:53;;;;;;;5.63;3.35;;;8.70;99.90;;;;;;5021233;28;20029;-35
2024/02/09 08:06:21;;;;;;;7.68;3.03;;;8.70;99.90;;;;;;5025662;28;20128;-34
2024/02/09 08:08:53;;;;;;;4.75;2.60;;;8.80;99.90;;;;;;5017820;28;20057;-35
2024/02/09 08:11:20;;;;;;;3.35;3.05;;;8.70;99.90;;;;;;5011291;28;20029;-33
2024/02/09 08:13:50;;;;;;;5.18;2.50;;;8.70;99.90;;;;;;5004004;28;20483;-32
2024/02/09 08:16:26;;;;;;;3.78;2.60;;;8.80;99.90;;;;;;5021283;28;20053;-31
2024/02/09 08:18:53;;;;;;;6.18;2.53;;;8.80;99.90;;;;;;5007063;28;20029;-35
2024/02/09 08:21:22;;;;;;;4.40;2.35;;;8.80;99.90;;;;;;5022786;28;20722;-32
2024/02/09 08:23:51;;;;;;;2.80;2.30;;;8.80;99.90;;;;;;5011328;28;20030;-31
2024/02/09 08:26:17;;;;;;;3.67;2.20;;;8.80;99.90;;;;;;5006845;28;20578;-32
2024/02/09 08:28:50;;;;;;;3.95;2.40;;;8.90;99.90;;;;;;5010789;28;20491;-32
2024/02/09 08:31:17;;;;;;;3.63;2.25;;;9.00;99.90;;;;;;5006787;28;20819;-33
2024/02/09 08:33:46;;;;;;;5.07;2.50;;;9.00;99.90;;;;;;5009170;28;20088;-33
2024/02/09 08:36:16;;;;;;;4.82;2.35;;;9.10;99.90;;;;;;5018913;28;20069;-33
2024/02/09 08:38:46;;;;;;;3.05;2.08;;;9.10;99.90;;;;;;5015121;28;20068;-33
2024/02/09 08:41:18;;;;;;;2.08;1.90;;;9.20;99.90;;;;;;5007099;28;20038;-33
2024/02/09 08:43:46;;;;;;;4.45;2.17;;;9.20;99.90;;;;;;5013192;28;20049;-33
2024/02/09 08:46:22;;;;;;;3.80;1.80;;;9.30;99.90;;;;;;5007869;28;20072;-33
2024/02/09 08:48:51;;;;;;;4.65;2.05;;;9.40;99.90;;;;;;5011354;28;20033;-32
2024/02/09 08:51:18;;;;;;;5.20;1.90;;;9.40;99.90;;;;;;5047246;28;20509;-33
2024/02/09 08:53:47;;;;;;;2.92;1.88;;;9.40;99.90;;;;;;5010225;28;20121;-34
2024/02/09 08:56:14;;;;;;;3.70;2.28;;;9.50;99.90;;;;;;5010421;28;20120;-33
2024/02/09 08:58:46;;;;;;;2.40;2.10;;;9.50;99.90;;;;;;5008214;28;20120;-35
2024/02/09 09:01:12;;;;;;;3.42;1.98;;;9.60;99.90;;;;;;5010349;28;20450;-32
2024/02/09 09:03:39;;;;;;;3.00;2.25;;;9.60;99.90;;;;;;5008655;28;20026;-34
2024/02/09 09:06:06;;;;;;;3.58;1.73;;;9.60;99.90;;;;;;5007146;28;20048;-32
2024/02/09 09:08:34;;;;;;;2.10;1.70;;;9.60;99.90;;;;;;5010175;28;20124;-33
2024/02/09 09:11:02;;;;;;;2.45;1.95;;;9.60;99.90;;;;;;5011562;28;20052;-40
2024/02/09 09:13:28;;;;;;;3.15;2.17;;;9.70;99.90;;;;;;5025007;28;20057;-40
2024/02/09 09:15:54;;;;;;;3.65;2.00;;;9.70;99.90;;;;;;5026623;28;20114;-40
2024/02/09 09:18:20;;;;;;;3.80;2.10;;;9.70;99.90;;;;;;5020684;28;20491;-37
2024/02/09 09:20:46;;;;;;;2.25;2.05;;;9.70;99.90;;;;;;5023782;28;20034;-39
2024/02/09 09:23:12;;;;;;;3.50;2.08;;;9.90;99.90;;;;;;5021058;28;20457;-40
2024/02/09 09:25:37;;;;;;;3.72;2.38;;;9.90;99.90;;;;;;5022206;28;20029;-40
2024/02/09 09:28:04;;;;;;;2.72;2.38;;;10.00;99.90;;;;;;5022836;28;20398;-39
2024/02/09 09:30:29;;;;;;;4.88;2.42;;;10.10;99.90;;;;;;5019901;28;20025;-32
2024/02/09 09:32:57;;;;;;;3.15;2.83;;;10.20;99.90;;;;;;5017735;28;20689;-34
2024/02/09 09:35:23;;;;;;;3.60;2.30;;;10.30;99.90;;;;;;5020973;28;20564;-31
2024/02/09 09:37:49;;;;;;;3.05;2.20;;;10.30;99.90;;;;;;5020532;28;20033;-33
2024/02/09 09:40:17;;;;;;;4.88;2.78;;;10.30;99.90;;;;;;5020441;28;20501;-37
2024/02/09 09:42:44;;;;;;;3.28;2.58;;;10.40;99.90;;;;;;5015615;28;20445;-32
2024/02/09 09:45:10;;;;;;;4.50;2.88;;;10.40;99.90;;;;;;5019535;28;20041;-33
2024/02/09 09:47:43;;;;;;;3.08;2.30;;;10.60;99.90;;;;;;5015883;28;20032;-35
2024/02/09 09:50:12;;;;;;;3.13;2.35;;;10.60;99.90;;;;;;5021524;28;20490;-37
2024/02/09 09:52:48;;;;;;;3.53;2.42;;;10.70;99.90;;;;;;5023110;28;20075;-33
2024/02/09 09:55:15;;;;;;;2.97;2.28;;;10.70;99.90;;;;;;5015514;28;20491;-35
2024/02/09 09:57:41;;;;;;;2.30;2.10;;;10.90;99.90;;;;;;5024042;28;20026;-31
2024/02/09 10:00:07;;;;;;;3.35;1.83;;;10.90;99.90;;;;;;5017621;28;20034;-32
2024/02/09 10:02:34;;;;;;;5.43;2.20;;;10.90;99.90;;;;;;5018748;28;20029;-31
2024/02/09 10:05:00;;;;;;;3.00;2.55;;;11.00;99.90;;;;;;5023550;28;20690;-32
2024/02/09 10:07:26;;;;;;;3.25;2.13;;;11.00;99.90;;;;;;5040467;28;20087;-31
2024/02/09 10:09:52;;;;;;;2.20;1.98;;;11.00;99.90;;;;;;5001153;28;20529;-38
2024/02/09 10:12:24;;;;;;;3.03;2.00;;;11.00;99.90;;;;;;5021158;28;20029;-32
2024/02/09 10:14:52;;;;;;;2.40;2.00;;;11.10;99.90;;;;;;5009917;28;20091;-32
2024/02/09 10:17:21;;;;;;;2.60;1.92;;;11.10;99.90;;;;;;5011954;28;20029;-31
2024/02/09 10:19:48;;;;;;;3.47;1.88;;;11.20;99.90;;;;;;5005407;28;20566;-34
2024/02/09 10:22:14;;;;;;;2.17;1.50;;;11.30;99.90;;;;;;5007516;28;20044;-31
2024/02/09 10:24:41;;;;;;;1.60;1.50;;;11.30;99.90;;;;;;5026329;28;20021;-32
2024/02/09 10:27:10;;;;;;;1.50;1.27;;;11.40;99.90;;;;;;5011828;28;20040;-31
2024/02/09 10:29:37;;;;;;;2.53;1.25;;;11.40;99.90;;;;;;5010077;28;20502;-31
2024/02/09 10:32:06;;;;;;;1.30;1.20;;;11.50;99.90;;;;;;5010074;28;20041;-31
2024/02/09 10:34:36;;;;;;;1.65;1.30;;;11.60;99.90;;;;;;5029864;28;20059;-33
2024/02/09 10:37:03;;;;;;;1.60;1.50;;;11.70;99.90;;;;;;5012349;28;20029;-33
2024/02/09 10:39:35;;;;;;;3.67;1.30;;;11.70;99.90;;;;;;5009822;28;20029;-31
2024/02/09 10:42:04;;;;;;;2.15;1.30;;;11.80;99.90;;;;;;5007392;28;20021;-39
2024/02/09 10:44:32;;;;;;;;;;;11.70;99.90;;;;;;5018075;28;20032;-39
2024/02/09 10:47:01;;;;;;;2.03;1.40;;;11.80;99.90;;;;;;5021658;28;20000;-37
2024/02/09 10:49:31;;;;;;;1.60;1.40;;;11.70;99.90;;;;;;5021817;28;20031;-40
2024/02/09 10:52:00;;;;;;;1.67;1.23;;;11.70;99.90;;;;;;5024649;28;20033;-39
2024/02/09 10:54:45;;;;;;;7.18;1.67;;;11.70;99.90;;;;;;5019853;28;20136;-40
2024/02/09 10:57:13;;;;;;;2.30;1.83;;;11.80;99.90;;;;;;5025333;28;20117;-40
2024/02/09 10:59:40;;;;;;;3.45;1.67;;;11.80;99.90;;;;;;5025400;28;20029;-41
2024/02/09 11:02:08;;;;;;;1.80;1.55;;;11.80;99.90;;;;;;5022777;28;20042;-40
2024/02/09 11:04:35;;;;;;;3.60;2.00;;;11.80;99.90;;;;;;5017073;28;20139;-35
2024/02/09 11:07:02;;;;;;;2.90;1.80;;;11.80;99.90;;;;;;5021118;28;20072;-38
2024/02/09 11:09:29;;;;;;;1.43;1.30;;;11.80;99.90;;;;;;5026873;28;20423;-40
2024/02/09 11:12:04;;;;;;;1.67;1.30;;;11.80;99.90;;;;;;5028694;28;20076;-38
2024/02/09 11:14:32;;;;;;;1.95;1.33;;;11.80;99.90;;;;;;5027100;28;20036;-38
2024/02/09 11:17:07;;;;;;;;;;;11.90;99.90;;;;;;5009001;28;20464;-39
2024/02/09 11:19:51;;;;;;;2.28;1.50;;;11.90;99.90;;;;;;5022420;28;19909;-40
2024/02/09 11:22:18;;;;;;;3.75;1.58;;;11.90;99.90;;;;;;5026079;28;20025;-39
2024/02/09 11:24:47;;;;;;;2.70;1.60;;;11.90;99.90;;;;;;5029574;28;20040;-39
2024/02/09 11:27:13;;;;;;;1.98;1.50;;;11.90;99.90;;;;;;5024635;28;20030;-39
2024/02/09 11:29:39;;;;;;;1.42;1.33;;;12.00;99.90;;;;;;5033567;28;20390;-38
2024/02/09 11:32:05;;;;;;;1.88;1.60;;;12.00;99.90;;;;;;5021645;28;20041;-40
2024/02/09 11:34:34;;;;;;;4.53;1.55;;;12.00;99.90;;;;;;5026483;28;20041;-41
2024/02/09 11:37:00;;;;;;;3.45;1.70;;;12.00;99.90;;;;;;5010645;28;20029;-41
2024/02/09 11:39:36;;;;;;;1.75;1.35;;;11.90;99.90;;;;;;5026724;28;20057;-39
2024/02/09 11:42:05;;;;;;;1.73;1.48;;;12.00;99.90;;;;;;5029812;28;20430;-37
2024/02/09 11:44:32;;;;;;;3.88;1.30;;;12.00;99.90;;;;;;5025776;28;20483;-42
2024/02/09 11:46:58;;;;;;;2.63;1.50;;;12.00;99.90;;;;;;5015583;28;20686;-34
2024/02/09 11:49:26;;;;;;;2.35;1.70;;;12.00;99.90;;;;;;5031931;28;20040;-42
2024/02/09 11:52:01;;;;;;;2.75;1.70;;;12.00;99.90;;;;;;5028394;28;20037;-41
2024/02/09 11:54:29;;;;;;;2.35;1.67;;;12.10;99.90;;;;;;5034508;28;20501;-41
2024/02/09 11:56:57;;;;;;;2.28;1.60;;;12.10;99.90;;;;;;5034958;28;20025;-41
2024/02/09 11:59:25;;;;;;;3.08;1.60;;;12.10;99.90;;;;;;5027587;28;20033;-39
2024/02/09 12:01:53;;;;;;;2.35;1.80;;;12.10;99.90;;;;;;5021634;28;20044;-40
2024/02/09 12:04:22;;;;;;;;;;;12.20;99.90;;;;;;5023402;28;20033;-40
2024/02/09 12:06:48;;;;;;;2.90;1.48;;;12.30;99.90;;;;;;5023527;28;19917;-40
2024/02/09 12:09:14;;;;;;;2.28;1.90;;;12.20;99.90;;;;;;5026903;28;20032;-41
2024/02/09 12:11:40;;;;;;;2.30;1.75;;;12.20;99.90;;;;;;5027835;28;20214;-40
2024/02/09 12:14:06;;;;;;;1.88;1.60;;;12.30;99.90;;;;;;5030557;28;20029;-40
2024/02/09 12:16:31;;;;;;;2.55;1.80;;;12.40;99.90;;;;;;5025667;28;20034;-39
2024/02/09 12:18:58;;;;;;;1.92;1.50;;;12.40;99.90;;;;;;5032373;28;20364;-38
2024/02/09 12:21:25;;;;;;;1.88;1.65;;;12.50;99.90;;;;;;5026086;28;20021;-40
2024/02/09 12:23:53;;;;;;;2.67;1.83;;;12.50;99.90;;;;;;5032150;28;20024;-38
2024/02/09 12:26:21;;;;;;;2.53;1.75;;;12.60;99.90;;;;;;5029078;28;20041;-41
2024/02/09 12:28:48;;;;;;;3.05;2.00;;;12.60;99.90;;;;;;5028305;28;20447;-41
2024/02/09 12:31:16;;;;;;;4.20;1.50;;;12.70;99.90;;;;;;5020166;28;20115;-40
2024/02/09 12:33:50;;;;;;;2.70;1.70;;;12.70;99.90;;;;;;5019861;28;20030;-41
2024/02/09 12:36:20;;;;;;;3.65;1.80;;;12.80;99.90;;;;;;5006779;28;20046;-42
2024/02/09 12:38:50;;;;;;;1.58;1.48;;;12.80;99.90;;;;;;4984706;28;20562;-40
2024/02/09 12:41:17;;;;;;;3.28;2.05;;;12.90;99.90;;;;;;5003896;28;20022;-34
2024/02/09 12:43:56;;;;;;;3.42;2.03;;;12.80;99.90;;;;;;4982447;28;20042;-31
2024/02/09 12:46:26;;;;;;;1.67;1.10;;;12.70;99.90;;;;;;5000602;28;20440;-31
2024/02/09 12:48:55;;;;;;;3.75;2.00;;;12.60;99.90;;;;;;4986503;28;20031;-31
2024/02/09 12:51:25;;;;;;;1.98;1.35;;;12.70;99.90;;;;;;4986183;28;20018;-33
2024/02/09 12:53:51;;;;;;;2.60;1.30;;;12.80;99.90;;;;;;4988336;28;20033;-33
2024/02/09 12:56:17;;;;;;;1.83;1.40;;;12.80;99.90;;;;;;5002694;28;20587;-30
2024/02/09 12:58:46;;;;;;;5.05;4.25;;;12.90;99.90;;;;;;5004631;28;20041;-33
2024/02/09 13:01:14;;;;;;;3.75;3.25;;;12.90;99.90;;;;;;4992257;28;20046;-38
2024/02/09 13:03:40;;;;;;;6.28;2.03;;;12.90;99.90;;;;;;4987562;28;20452;-39
2024/02/09 13:06:06;;;;;;;2.33;1.40;;;12.90;99.90;;;;;;4996282;28;20046;-36
2024/02/09 13:08:33;;;;;;;2.70;1.50;;;12.90;99.90;;;;;;5004670;28;20038;-40
2024/02/09 13:10:59;;;;;;;2.17;1.30;;;12.80;99.90;;;;;;4996976;28;20030;-39
2024/02/09 13:13:26;;;;;;;5.43;1.65;;;12.80;99.90;;;;;;5003131;28;20030;-39
2024/02/09 13:15:51;;;;;;;1.50;1.40;;;12.70;99.90;;;;;;4999811;28;20026;-37
2024/02/09 13:18:17;;;;;;;3.75;1.55;;;12.60;99.90;;;;;;5002856;28;20087;-40
2024/02/09 13:20:45;;;;;;;4.90;1.92;;;12.60;99.90;;;;;;5005623;28;20030;-38
2024/02/09 13:23:13;;;;;;;2.97;1.48;;;12.60;99.90;;;;;;5006932;28;20037;-39
2024/02/09 13:25:40;;;;;;;4.22;1.73;;;12.60;99.90;;;;;;5000599;28;20034;-41
2024/02/09 13:28:07;;;;;;;3.03;1.48;;;12.50;99.90;;;;;;5018993;28;20046;-40
2024/02/09 13:30:33;;;;;;;1.40;1.30;;;12.40;99.90;;;;;;4995274;28;20026;-39
2024/02/09 13:33:00;;;;;;;3.17;1.23;;;12.40;99.90;;;;;;5004057;28;20471;-38
2024/02/09 13:35:26;;;;;;;5.63;1.88;;;12.40;99.90;;;;;;5013116;28;20113;-39
2024/02/09 13:37:53;;;;;;;2.78;1.38;;;12.50;99.90;;;;;;5021410;28;20095;-38
2024/02/09 13:40:19;;;;;;;3.25;2.13;;;12.60;99.90;;;;;;5030219;28;20053;-40
2024/02/09 13:42:49;;;;;;;3.25;1.48;;;12.60;99.90;;;;;;5024784;28;20029;-39
2024/02/09 13:45:17;;;;;;;2.63;1.60;;;12.60;99.90;;;;;;5018050;28;20480;-38
2024/02/09 13:47:43;;;;;;;2.40;1.33;;;12.60;99.90;;;;;;5026828;28;20041;-40
2024/02/09 13:50:12;;;;;;;3.90;1.75;;;12.70;99.90;;;;;;5024872;28;20041;-33
2024/02/09 13:52:39;;;;;;;1.48;1.33;;;12.60;99.90;;;;;;5038119;28;20029;-31
2024/02/09 13:55:06;;;;;;;3.22;2.00;;;12.60;99.90;;;;;;5025959;28;20602;-35
2024/02/09 13:57:35;;;;;;;3.20;1.87;;;12.70;99.90;;;;;;5016793;28;20041;-34
2024/02/09 14:00:07;;;;;;;6.60;1.92;;;12.60;99.90;;;;;;5023991;28;20103;-34
2024/02/09 14:02:33;;;;;;;3.47;2.00;;;12.60;99.90;;;;;;5024005;28;20128;-34
2024/02/09 14:05:00;;;;;;;6.13;3.78;;;12.60;99.90;;;;;;5007278;28;20578;-32
2024/02/09 14:07:26;;;;;;;6.68;3.83;;;12.60;99.90;;;;;;5022433;28;20035;-32
2024/02/09 14:09:52;;;;;;;11.23;7.20;;;12.60;99.90;;;;;;5025037;28;20191;-37
2024/02/09 14:12:18;;;;;;;11.00;7.28;;;12.50;99.90;;;;;;5041298;28;20748;-34
2024/02/09 14:14:45;;;;;;;7.65;6.95;;;12.60;99.90;;;;;;5026821;28;20114;-39
2024/02/09 14:17:13;;;;;;;13.60;11.40;;;12.50;99.90;;;;;;5005214;28;20613;-38
2024/02/09 14:19:42;;;;;;;8.57;7.05;;;12.40;99.90;;;;;;5000031;28;20604;-41
2024/02/09 14:22:15;;;;;;;5.80;4.63;;;12.40;99.90;;;;;;5035308;28;20034;-39
2024/02/09 14:24:40;;;;;;;4.03;1.83;;;12.40;99.90;;;;;;5008159;28;20116;-41
2024/02/09 14:27:07;;;;;;;3.80;2.20;;;12.20;99.90;;;;;;5012421;28;20120;-40
2024/02/09 14:29:33;;;;;;;2.80;1.92;;;12.20;99.90;;;;;;5013400;28;20021;-40
2024/02/09 14:32:00;;;;;;;3.85;1.75;;;12.20;99.90;;;;;;5009555;28;20038;-41
2024/02/09 14:34:28;;;;;;;3.47;2.10;;;12.10;99.90;;;;;;5029231;28;20213;-41
2024/02/09 14:36:54;;;;;;;4.75;2.22;;;12.20;99.90;;;;;;4992958;28;20025;-41
2024/02/09 14:39:19;;;;;;;4.25;2.47;;;12.20;99.90;;;;;;4982406;28;20107;-41
2024/02/09 14:41:45;;;;;;;4.97;2.42;;;12.20;99.90;;;;;;4980438;28;20443;-40
2024/02/09 14:44:11;;;;;;;3.53;2.70;;;12.10;99.90;;;;;;4983076;28;20762;-40